Time;durP1;ratioP1;P1;durP2;ratioP2;P2;SDS_P1;SDS_P2;PMS_P1;PMS_P2;Temp;Humidity;BMP_temperature;BMP_pressure;BME280_temperature;BME280_humidity;BME280_pressure;Samples;Min_cycle;Max_cycle;Signal;HPM_P1;HPM_P2
2022/12/21 00:00:11;;;;;;;;;;;1.80;99.90;;;;;;5031265;28;19925;-77
2022/12/21 00:02:39;;;;;;;;;;;1.80;99.90;;;;;;5032051;28;20665;-77
2022/12/21 00:05:06;;;;;;;;;;;1.90;99.90;;;;;;5013157;28;19952;-77
2022/12/21 00:07:38;;;;;;;;;;;2.00;99.90;;;;;;5019832;28;19929;-77
2022/12/21 00:10:10;;;;;;;;;;;2.20;99.90;;;;;;5006673;28;19926;-77
2022/12/21 00:12:41;;;;;;;;;;;2.30;99.90;;;;;;5036941;28;19925;-76
2022/12/21 00:15:13;;;;;;;;;;;2.30;99.90;;;;;;5023002;28;20357;-77
2022/12/21 00:17:44;;;;;;;;;;;2.30;99.90;;;;;;5005035;28;19930;-77
2022/12/21 00:20:11;;;;;;;;;;;2.20;99.90;;;;;;5006110;28;20478;-77
2022/12/21 00:22:37;;;;;;;;;;;2.20;99.90;;;;;;5012047;28;19929;-77
2022/12/21 00:25:09;;;;;;;;;;;2.10;99.90;;;;;;5022776;28;20451;-77
2022/12/21 00:27:36;;;;;;;;;;;2.10;99.90;;;;;;5018642;28;20373;-77
2022/12/21 00:30:07;;;;;;;;;;;2.00;99.90;;;;;;5012221;28;19949;-77
2022/12/21 00:32:34;;;;;;;;;;;2.00;99.90;;;;;;5011634;28;19925;-76
2022/12/21 00:35:06;;;;;;;;;;;2.00;99.90;;;;;;5010763;28;19926;-77
2022/12/21 00:37:32;;;;;;;;;;;2.00;99.90;;;;;;5011924;28;19976;-77
2022/12/21 00:40:04;;;;;;;;;;;1.90;99.90;;;;;;5020069;28;19930;-76
2022/12/21 00:42:31;;;;;;;;;;;1.90;99.90;;;;;;5020927;28;20298;-77
2022/12/21 00:44:57;;;;;;;;;;;1.90;99.90;;;;;;5045222;28;20011;-76
2022/12/21 00:47:24;;;;;;;;;;;1.80;99.90;;;;;;5030819;28;19971;-76
2022/12/21 00:49:51;;;;;;;;;;;1.80;99.90;;;;;;5011092;28;19949;-77
2022/12/21 00:52:17;;;;;;;;;;;1.90;99.90;;;;;;5011586;28;19925;-76
2022/12/21 00:54:44;;;;;;;;;;;1.90;99.90;;;;;;5028772;28;20013;-76
2022/12/21 00:57:10;;;;;;;;;;;2.00;99.90;;;;;;5028709;28;19932;-76
2022/12/21 00:59:42;;;;;;;;;;;2.10;99.90;;;;;;5016724;28;20372;-77
2022/12/21 01:02:10;;;;;;;;;;;2.20;99.90;;;;;;5016835;28;19969;-77
2022/12/21 01:04:39;;;;;;;;;;;2.20;99.90;;;;;;5037330;28;19991;-77
2022/12/21 01:07:12;;;;;;;;;;;2.20;99.90;;;;;;5028618;28;19926;-77
2022/12/21 01:09:45;;;;;;;;;;;2.30;99.90;;;;;;5019482;28;19968;-77
2022/12/21 01:12:17;;;;;;;;;;;2.30;99.90;;;;;;5012104;28;19995;-77
2022/12/21 01:14:45;;;;;;;;;;;2.40;99.90;;;;;;5017684;28;19926;-77
2022/12/21 01:17:14;;;;;;;;;;;2.40;99.90;;;;;;5042960;28;20020;-77
2022/12/21 01:19:44;;;;;;;;;;;2.30;99.90;;;;;;5032762;28;19925;-77
2022/12/21 01:22:14;;;;;;;;;;;2.30;99.90;;;;;;5014502;28;20012;-77
2022/12/21 01:24:49;;;;;;;;;;;2.30;99.90;;;;;;5034331;28;19925;-77
2022/12/21 01:27:20;;;;;;;;;;;2.30;99.90;;;;;;5015006;28;19925;-77
2022/12/21 01:29:52;;;;;;;;;;;2.30;99.90;;;;;;5032276;28;19935;-77
2022/12/21 01:32:21;;;;;;;;;;;2.20;99.90;;;;;;5007691;28;20454;-76
2022/12/21 01:34:49;;;;;;;;;;;2.20;99.90;;;;;;5037029;28;19929;-77
2022/12/21 01:37:17;;;;;;;;;;;2.10;99.90;;;;;;4998751;28;19932;-77
2022/12/21 01:39:48;;;;;;;;;;;2.10;99.90;;;;;;5014502;28;20371;-77
2022/12/21 01:42:20;;;;;;;;;;;2.10;99.90;;;;;;5034897;28;19956;-77
2022/12/21 01:45:07;;;;;;;;;;;2.00;99.90;;;;;;5013557;28;19930;-77
2022/12/21 01:47:47;;;;;;;;;;;2.00;99.90;;;;;;5016812;28;20008;-77
2022/12/21 01:50:35;;;;;;;;;;;1.90;99.90;;;;;;5001705;28;19925;-76
2022/12/21 01:53:13;;;;;;;;;;;1.90;99.90;;;;;;5035837;28;19984;-77
2022/12/21 01:55:42;;;;;;;;;;;1.90;99.90;;;;;;5002199;28;19931;-76
2022/12/21 01:58:12;;;;;;;;;;;1.80;99.90;;;;;;5016192;28;19949;-76
2022/12/21 02:00:42;;;;;;;;;;;1.80;99.90;;;;;;5017147;28;19935;-76
2022/12/21 02:03:15;;;;;;;;;;;1.80;99.90;;;;;;5012978;28;19929;-76
2022/12/21 02:05:55;;;;;;;;;;;1.80;99.90;;;;;;5034851;28;19926;-76
2022/12/21 02:08:26;;;;;;;;;;;1.80;99.90;;;;;;5013447;28;19925;-77
2022/12/21 02:10:57;;;;;;;;;;;1.80;99.90;;;;;;5026091;28;20600;-78
2022/12/21 02:13:26;;;;;;;;;;;1.80;99.90;;;;;;5029931;28;20015;-76
2022/12/21 02:15:54;;;;;;;;;;;1.80;99.90;;;;;;5034741;28;19925;-77
2022/12/21 02:18:40;;;;;;;;;;;1.80;99.90;;;;;;5018445;28;20020;-76
2022/12/21 02:21:17;;;;;;;;;;;1.80;99.90;;;;;;5034703;28;20354;-76
2022/12/21 02:24:44;;;;;;;;;;;1.80;99.90;;;;;;5028851;28;20008;-76
2022/12/21 02:27:12;;;;;;;;;;;1.90;99.90;;;;;;5000521;28;20108;-76
2022/12/21 02:29:50;;;;;;;;;;;1.90;99.90;;;;;;5008224;28;19926;-76
2022/12/21 02:32:22;;;;;;;;;;;1.90;99.90;;;;;;5024190;28;19968;-76
2022/12/21 02:35:10;;;;;;;;;;;1.90;99.90;;;;;;5018480;28;19936;-76
2022/12/21 02:37:54;;;;;;;;;;;1.90;99.90;;;;;;5036535;28;19936;-76
2022/12/21 02:40:33;;;;;;;;;;;2.00;99.90;;;;;;5009901;28;19983;-76
2022/12/21 02:45:57;;;;;;;;;;;2.10;99.90;;;;;;5016236;28;20407;-76
2022/12/21 02:48:34;;;;;;;;;;;2.10;99.90;;;;;;5016820;28;20277;-76
2022/12/21 02:51:06;;;;;;;;;;;2.10;99.90;;;;;;4999017;28;19925;-75
2022/12/21 02:53:37;;;;;;;;;;;2.20;99.90;;;;;;5005143;28;20179;-75
2022/12/21 02:56:15;;;;;;;;;;;2.20;99.90;;;;;;5019198;28;19929;-76
2022/12/21 02:58:46;;;;;;;;;;;2.20;99.90;;;;;;5028703;28;19930;-76
2022/12/21 03:01:24;;;;;;;;;;;2.20;99.90;;;;;;5020704;28;20281;-76
2022/12/21 03:03:58;;;;;;;;;;;2.20;99.90;;;;;;5035851;28;19968;-76
2022/12/21 03:06:47;;;;;;;;;;;2.20;99.90;;;;;;4999871;28;19925;-76
2022/12/21 03:09:23;;;;;;;;;;;2.20;99.90;;;;;;4995587;28;19932;-76
2022/12/21 03:11:55;;;;;;;;;;;2.20;99.90;;;;;;5014992;28;19976;-76
2022/12/21 03:14:28;;;;;;;;;;;2.20;99.90;;;;;;5003221;28;19925;-76
2022/12/21 03:17:00;;;;;;;;;;;2.20;99.90;;;;;;5033470;28;19932;-75
2022/12/21 03:19:45;;;;;;;;;;;2.20;99.90;;;;;;5001110;28;20389;-76
2022/12/21 03:22:29;;;;;;;;;;;2.20;99.90;;;;;;5031391;28;20017;-75
2022/12/21 03:25:03;;;;;;;;;;;2.20;99.90;;;;;;5003718;28;20411;-76
2022/12/21 03:27:35;;;;;;;;;;;2.20;99.90;;;;;;5021781;28;20394;-76
2022/12/21 03:30:09;;;;;;;;;;;2.20;99.90;;;;;;5025094;28;19932;-76
2022/12/21 03:32:41;;;;;;;;;;;2.30;99.90;;;;;;5041903;28;20011;-76
2022/12/21 03:35:19;;;;;;;;;;;2.30;99.90;;;;;;5000774;28;20380;-76
2022/12/21 03:37:49;;;;;;;;;;;2.30;99.90;;;;;;5033479;28;19929;-76
2022/12/21 03:40:20;;;;;;;;;;;2.40;99.90;;;;;;4998976;28;19925;-76
2022/12/21 03:42:56;;;;;;;;;;;2.40;99.90;;;;;;5003303;28;19926;-75
2022/12/21 03:45:32;;;;;;;;;;;2.40;99.90;;;;;;5010107;28;19926;-75
2022/12/21 03:48:10;;;;;;;;;;;2.50;99.90;;;;;;5021823;28;20422;-76
2022/12/21 03:50:42;;;;;;;;;;;2.50;99.90;;;;;;5014072;28;19933;-76
2022/12/21 03:53:15;;;;;;;;;;;2.50;99.90;;;;;;5016224;28;20399;-76
2022/12/21 03:55:45;;;;;;;;;;;2.50;99.90;;;;;;5021587;28;19926;-75
2022/12/21 03:58:17;;;;;;;;;;;2.40;99.90;;;;;;5021640;28;19987;-75
2022/12/21 04:00:51;;;;;;;;;;;2.40;99.90;;;;;;4999649;28;19996;-76
2022/12/21 04:03:28;;;;;;;;;;;2.40;99.90;;;;;;5006042;28;20189;-76
2022/12/21 04:05:59;;;;;;;;;;;2.30;99.90;;;;;;5015765;28;19957;-76
2022/12/21 04:08:31;;;;;;;;;;;2.30;99.90;;;;;;5018057;28;20398;-75
2022/12/21 04:12:35;;;;;;;;;;;2.30;99.90;;;;;;5015030;28;19932;-76
2022/12/21 04:13:53;;;;;;;;;;;2.30;99.90;;;;;;5032422;28;19925;-75
2022/12/21 04:16:20;;;;;;;;;;;2.40;99.90;;;;;;5006581;28;20030;-75
2022/12/21 04:21:37;;;;;;;;;;;2.50;99.90;;;;;;5019241;28;19984;-75
2022/12/21 04:29:47;;;;;;;;;;;2.80;99.90;;;;;;5016207;28;19925;-75
2022/12/21 04:32:16;;;;;;;;;;;2.90;99.90;;;;;;5027056;28;20388;-75
2022/12/21 04:34:46;;;;;;;;;;;3.00;99.90;;;;;;5011645;28;19926;-75
2022/12/21 04:37:35;;;;;;;;;;;3.10;99.90;;;;;;5036060;28;19925;-76
2022/12/21 04:40:04;;;;;;;;;;;3.40;99.90;;;;;;4997541;28;19926;-76
2022/12/21 04:42:32;;;;;;;;;;;3.60;99.90;;;;;;5015207;28;20372;-76
2022/12/21 04:45:00;;;;;;;;;;;3.70;99.90;;;;;;5013561;28;19934;-76
2022/12/21 04:47:29;;;;;;;;;;;3.90;99.90;;;;;;5020371;28;20016;-75
2022/12/21 04:49:57;;;;;;;;;;;4.00;99.90;;;;;;5020844;28;19944;-76
2022/12/21 04:52:30;;;;;;;;;;;4.10;99.90;;;;;;5018924;28;19968;-76
2022/12/21 04:54:57;;;;;;;;;;;4.20;99.90;;;;;;5034717;28;19972;-76
2022/12/21 04:57:25;;;;;;;;;;;4.30;99.90;;;;;;5029691;28;20355;-76
2022/12/21 04:59:54;;;;;;;;;;;4.30;99.90;;;;;;4986437;28;19932;-75
2022/12/21 05:02:27;;;;;;;;;;;4.30;99.90;;;;;;4998923;28;19925;-75
2022/12/21 05:04:56;;;;;;;;;;;4.30;99.90;;;;;;5040481;28;19936;-75
2022/12/21 05:07:25;;;;;;;;;;;4.30;99.90;;;;;;5013591;28;19996;-76
2022/12/21 05:09:53;;;;;;;;;;;4.30;99.90;;;;;;5010059;28;20016;-76
2022/12/21 05:12:41;;;;;;;;;;;4.30;99.90;;;;;;5012574;28;19952;-75
2022/12/21 05:15:09;;;;;;;;;;;4.30;99.90;;;;;;5030743;28;19945;-76
2022/12/21 05:17:37;;;;;;;;;;;4.30;99.90;;;;;;5019966;28;19929;-75
2022/12/21 05:20:29;;;;;;;;;;;4.30;99.90;;;;;;5000572;28;19979;-75
2022/12/21 05:23:24;;;;;;;;;;;4.30;99.90;;;;;;4994360;28;19932;-73
2022/12/21 05:25:56;;;;;;;;;;;4.40;99.90;;;;;;5018507;28;19960;-77
2022/12/21 05:28:29;;;;;;;;;;;4.50;99.90;;;;;;5011494;28;19984;-75
2022/12/21 05:31:27;;;;;;;;;;;4.50;99.90;;;;;;5022799;28;19926;-76
2022/12/21 05:34:10;;;;;;;;;;;4.60;99.90;;;;;;4998490;28;19932;-76
2022/12/21 05:36:40;;;;;;;;;;;4.80;99.90;;;;;;5021690;28;19951;-76
2022/12/21 05:39:13;;;;;;;;;;;5.10;99.90;;;;;;4999584;28;19930;-76
2022/12/21 05:42:20;;;;;;;;;;;5.20;99.90;;;;;;4995290;28;19929;-77
2022/12/21 05:44:50;;;;;;;;;;;5.20;99.90;;;;;;5009013;28;20028;-76
2022/12/21 05:48:19;;;;;;;;;;;5.20;99.90;;;;;;5008432;28;19936;-76
2022/12/21 05:51:09;;;;;;;;;;;5.50;99.90;;;;;;5008756;28;19926;-76
2022/12/21 05:54:19;;;;;;;;;;;5.50;99.90;;;;;;5038737;28;19928;-76
2022/12/21 05:57:05;;;;;;;;;;;5.50;99.90;;;;;;5017266;28;19971;-76
2022/12/21 06:00:08;;;;;;;;;;;5.60;99.90;;;;;;4992910;28;19979;-76
2022/12/21 06:02:57;;;;;;;;;;;5.60;99.90;;;;;;5013341;28;20300;-76
2022/12/21 06:05:45;;;;;;;;;;;5.70;99.90;;;;;;5019634;28;19921;-76
2022/12/21 06:08:31;;;;;;;;;;;5.90;99.90;;;;;;5019181;28;20388;-76
2022/12/21 06:11:27;;;;;;;;;;;5.90;99.90;;;;;;5006584;28;19933;-76
2022/12/21 06:14:15;;;;;;;;;;;6.00;99.90;;;;;;5022211;28;19932;-76
2022/12/21 06:16:47;;;;;;;;;;;6.10;99.90;;;;;;5020208;28;20383;-75
2022/12/21 06:19:16;;;;;;;;;;;6.10;99.90;;;;;;5027723;28;20300;-74
2022/12/21 06:21:44;;;;;;;;;;;6.00;99.90;;;;;;5011756;28;19936;-74
2022/12/21 06:24:12;;;;;;;;;;;6.10;99.90;;;;;;4996844;28;19929;-75
2022/12/21 06:26:41;;;;;;;;;;;6.10;99.90;;;;;;5037049;28;19935;-74
2022/12/21 06:29:10;;;;;;;;;;;6.20;99.90;;;;;;5028331;28;19925;-75
2022/12/21 06:31:40;;;;;;;;;;;6.20;99.90;;;;;;5010536;28;19929;-74
2022/12/21 06:34:34;;;;;;;;;;;6.30;99.90;;;;;;5006980;28;19933;-75
2022/12/21 06:37:03;;;;;;;;;;;6.20;99.90;;;;;;5025665;28;19929;-75
2022/12/21 06:39:31;;;;;;;;;;;6.10;99.90;;;;;;5029242;28;19972;-75
2022/12/21 06:42:00;;;;;;;;;;;6.20;99.90;;;;;;5020949;28;19979;-75
2022/12/21 06:44:31;;;;;;;;;;;6.10;99.90;;;;;;5019828;28;19937;-75
2022/12/21 06:47:00;;;;;;;;;;;6.10;99.90;;;;;;5022281;28;19925;-74
2022/12/21 06:49:30;;;;;;;;;;;6.00;99.90;;;;;;5016541;28;20023;-75
2022/12/21 06:52:01;;;;;;;;;;;5.90;99.90;;;;;;5034692;28;19933;-75
2022/12/21 06:54:35;;;;;;;;;;;5.80;99.90;;;;;;5017525;28;19979;-74
2022/12/21 07:00:01;;;;;;;;;;;5.80;99.90;;;;;;5006859;28;20399;-74
2022/12/21 07:02:31;;;;;;;;;;;5.80;99.90;;;;;;5005061;28;20008;-74
2022/12/21 07:05:03;;;;;;;;;;;6.10;99.90;;;;;;5016894;28;20025;-72
2022/12/21 07:07:31;;;;;;;;;;;6.40;99.90;;;;;;5011735;28;19933;-73
2022/12/21 07:10:03;;;;;;;;;;;6.50;99.90;;;;;;5018369;28;19937;-74
2022/12/21 07:12:33;;;;;;;;;;;6.60;99.90;;;;;;5022761;28;19929;-73
2022/12/21 07:15:00;;;;;;;;;;;6.60;99.90;;;;;;5019886;28;19933;-73
2022/12/21 07:17:32;;;;;;;;;;;6.50;99.90;;;;;;5034204;28;19925;-74
2022/12/21 07:20:01;;;;;;;;;;;6.60;99.90;;;;;;4999957;28;20163;-73
2022/12/21 07:22:29;;;;;;;;;;;6.60;99.90;;;;;;5018119;28;19929;-73
2022/12/21 07:24:58;;;;;;;;;;;6.70;99.90;;;;;;5020628;28;19964;-75
2022/12/21 07:27:28;;;;;;;;;;;6.80;99.90;;;;;;5010084;28;19932;-72
2022/12/21 07:29:57;;;;;;;;;;;6.80;99.90;;;;;;5034382;28;20022;-73
2022/12/21 07:32:29;;;;;;;;;;;6.80;99.90;;;;;;5019203;28;20506;-74
2022/12/21 07:34:58;;;;;;;;;;;6.90;99.90;;;;;;4992227;28;19925;-73
2022/12/21 07:37:29;;;;;;;;;;;6.80;99.90;;;;;;5023191;28;19925;-73
2022/12/21 07:39:57;;;;;;;;;;;6.70;99.90;;;;;;4987381;28;19925;-74
2022/12/21 07:42:26;;;;;;;;;;;6.70;99.90;;;;;;5027175;28;20032;-73
2022/12/21 07:45:15;;;;;;;;;;;6.70;99.90;;;;;;5013940;28;19932;-73
2022/12/21 07:47:47;;;;;;;;;;;6.60;99.90;;;;;;4977668;28;19925;-72
2022/12/21 07:50:15;;;;;;;;;;;6.60;99.90;;;;;;5014535;28;19931;-73
2022/12/21 07:52:43;;;;;;;;;;;6.60;99.90;;;;;;5040579;28;20383;-73
2022/12/21 07:55:11;;;;;;;;;;;6.60;99.90;;;;;;5007292;28;20544;-72
2022/12/21 07:57:40;;;;;;;;;;;6.60;99.90;;;;;;5040350;28;20020;-72
2022/12/21 08:00:09;;;;;;;;;;;6.60;99.90;;;;;;5019235;28;19925;-73
2022/12/21 08:02:39;;;;;;;;;;;6.60;99.90;;;;;;4999397;28;19932;-72
2022/12/21 08:05:08;;;;;;;;;;;6.60;99.90;;;;;;5043158;28;19956;-73
2022/12/21 08:07:37;;;;;;;;;;;6.60;99.90;;;;;;5002758;28;20039;-73
2022/12/21 08:10:05;;;;;;;;;;;6.60;99.90;;;;;;5029534;28;20025;-73
2022/12/21 08:12:33;;;;;;;;;;;6.50;99.90;;;;;;5010875;28;19932;-72
2022/12/21 08:15:02;;;;;;;;;;;6.50;99.90;;;;;;5005142;28;19925;-72
2022/12/21 08:17:30;;;;;;;;;;;6.50;99.90;;;;;;5038751;28;19929;-73
2022/12/21 08:19:58;;;;;;;;;;;6.50;99.90;;;;;;5008635;28;19959;-73
2022/12/21 08:22:26;;;;;;;;;;;6.60;99.90;;;;;;5012955;28;19929;-72
2022/12/21 08:24:55;;;;;;;;;;;6.50;99.90;;;;;;5025294;28;19932;-73
2022/12/21 08:27:23;;;;;;;;;;;6.50;99.90;;;;;;5021166;28;19929;-73
2022/12/21 08:29:52;;;;;;;;;;;6.50;99.90;;;;;;4986595;28;20628;-72
2022/12/21 08:32:22;;;;;;;;;;;6.50;99.90;;;;;;5031911;28;19926;-73
2022/12/21 08:34:52;;;;;;;;;;;6.50;99.90;;;;;;5008925;28;19980;-73
2022/12/21 08:37:21;;;;;;;;;;;6.50;99.90;;;;;;5038913;28;19929;-71
2022/12/21 08:39:50;;;;;;;;;;;6.50;99.90;;;;;;4999143;28;20296;-71
2022/12/21 08:42:19;;;;;;;;;;;6.50;99.90;;;;;;5009547;28;19933;-73
2022/12/21 08:44:49;;;;;;;;;;;6.50;99.90;;;;;;5030299;28;19932;-71
2022/12/21 08:47:18;;;;;;;;;;;6.50;99.90;;;;;;5033937;28;19933;-71
2022/12/21 08:49:47;;;;;;;;;;;6.60;99.90;;;;;;5030902;28;20299;-71
2022/12/21 08:52:15;;;;;;;;;;;6.50;99.90;;;;;;5001624;28;20500;-72
2022/12/21 08:54:43;;;;;;;;;;;6.60;99.90;;;;;;5041280;28;19979;-72
2022/12/21 08:57:12;;;;;;;;;;;6.60;99.90;;;;;;5040585;28;20015;-73
2022/12/21 08:59:42;;;;;;;;;;;6.70;99.90;;;;;;4999442;28;20311;-70
2022/12/21 09:02:11;;;;;;;;;;;6.70;99.90;;;;;;5017582;28;19928;-71
2022/12/21 09:04:40;;;;;;;;;;;6.80;99.90;;;;;;4999059;28;19925;-71
2022/12/21 09:07:13;;;;;;;;;;;6.80;99.90;;;;;;5010632;28;20354;-72
2022/12/21 09:09:44;;;;;;;;;;;6.80;99.90;;;;;;5012040;28;20330;-72
2022/12/21 09:12:13;;;;;;;;;;;6.80;99.90;;;;;;5017860;28;19972;-71
2022/12/21 09:14:42;;;;;;;;;;;6.90;99.90;;;;;;5020846;28;19925;-72
2022/12/21 09:17:10;;;;;;;;;;;6.80;99.90;;;;;;5000053;28;20821;-71
2022/12/21 09:19:41;;;;;;;;;;;6.80;99.90;;;;;;5023485;28;19933;-71
2022/12/21 09:22:12;;;;;;;;;;;6.90;99.90;;;;;;5036050;28;19975;-72
2022/12/21 09:24:42;;;;;;;;;;;6.80;99.90;;;;;;4990644;28;19929;-71
2022/12/21 09:27:13;;;;;;;;;;;6.80;99.90;;;;;;5006094;28;19937;-72
2022/12/21 09:29:48;;;;;;;;;;;6.70;99.90;;;;;;4994392;28;20246;-73
2022/12/21 09:32:35;;;;;;;;;;;6.70;99.90;;;;;;5011763;28;19933;-72
2022/12/21 09:35:05;;;;;;;;;;;6.60;99.90;;;;;;5006457;28;20370;-71
2022/12/21 09:37:34;;;;;;;;;;;6.60;99.90;;;;;;5019971;28;19972;-72
2022/12/21 09:40:04;;;;;;;;;;;6.70;99.90;;;;;;4992517;28;20355;-71
2022/12/21 09:42:52;;;;;;;;;;;6.70;99.90;;;;;;5010030;28;20400;-72
2022/12/21 09:45:32;;;;;;;;;;;6.80;99.90;;;;;;5008940;28;20016;-73
2022/12/21 09:48:09;;;;;;;;;;;6.90;99.90;;;;;;5014440;28;19929;-71
2022/12/21 09:50:57;;;;;;;;;;;7.00;99.90;;;;;;5027500;28;20407;-71
2022/12/21 09:53:49;;;;;;;;;;;7.10;99.90;;;;;;5020133;28;19932;-71
2022/12/21 09:56:29;;;;;;;;;;;7.20;99.90;;;;;;5014138;28;20009;-70
2022/12/21 09:59:02;;;;;;;;;;;7.20;99.90;;;;;;5023515;28;19933;-73
2022/12/21 10:01:32;;;;;;;;;;;7.20;99.90;;;;;;5037897;28;19925;-73
2022/12/21 10:04:09;;;;;;;;;;;7.30;99.90;;;;;;5033590;28;19930;-71
2022/12/21 10:06:54;;;;;;;;;;;7.40;99.90;;;;;;5035663;28;20384;-71
2022/12/21 10:09:33;;;;;;;;;;;7.40;99.90;;;;;;5026531;28;19943;-72
2022/12/21 10:12:11;;;;;;;;;;;7.40;99.90;;;;;;5031138;28;19930;-71
2022/12/21 10:14:47;;;;;;;;;;;7.50;99.90;;;;;;5005152;28;19926;-70
2022/12/21 10:17:23;;;;;;;;;;;7.40;99.90;;;;;;5035819;28;20462;-70
2022/12/21 10:19:54;;;;;;;;;;;7.50;99.90;;;;;;5028672;28;19929;-71
2022/12/21 10:22:31;;;;;;;;;;;7.50;99.90;;;;;;5005655;28;20038;-71
2022/12/21 10:25:01;;;;;;;;;;;7.50;99.90;;;;;;5006817;28;20439;-71
2022/12/21 10:27:41;;;;;;;;;;;7.60;99.90;;;;;;5004666;28;19925;-71
2022/12/21 10:30:13;;;;;;;;;;;7.60;99.90;;;;;;4995102;28;20327;-72
2022/12/21 10:32:45;;;;;;;;;;;7.70;99.90;;;;;;5008602;28;19930;-71
2022/12/21 10:35:18;;;;;;;;;;;7.70;99.90;;;;;;5016093;28;19925;-71
2022/12/21 10:37:51;;;;;;;;;;;7.70;99.90;;;;;;5002095;28;19925;-71
2022/12/21 10:40:21;;;;;;;;;;;7.70;99.90;;;;;;5032341;28;19926;-71
2022/12/21 10:42:54;;;;;;;;;;;7.80;99.90;;;;;;5022267;28;20346;-72
2022/12/21 10:45:24;;;;;;;;;;;7.90;99.90;;;;;;5006272;28;19932;-71
2022/12/21 10:47:55;;;;;;;;;;;7.90;99.90;;;;;;5021390;28;19937;-73
2022/12/21 10:50:26;;;;;;;;;;;7.90;99.90;;;;;;5030885;28;20392;-73
2022/12/21 10:52:56;;;;;;;;;;;7.90;99.90;;;;;;5041854;28;19968;-71
2022/12/21 10:55:29;;;;;;;;;;;8.00;99.90;;;;;;5008030;28;19933;-72
2022/12/21 10:58:16;;;;;;;;;;;8.00;99.90;;;;;;5018095;28;20371;-71
2022/12/21 11:00:51;;;;;;;;;;;8.10;99.90;;;;;;5019515;28;19928;-71
2022/12/21 11:03:24;;;;;;;;;;;8.10;99.90;;;;;;5018828;28;20422;-71
2022/12/21 11:05:53;;;;;;;;;;;8.10;99.90;;;;;;5040739;28;20012;-71
2022/12/21 11:08:22;;;;;;;;;;;8.20;99.90;;;;;;5030608;28;20025;-73
2022/12/21 11:10:55;;;;;;;;;;;8.20;99.90;;;;;;5019989;28;19925;-71
2022/12/21 11:13:28;;;;;;;;;;;8.20;99.90;;;;;;5016191;28;19933;-71
2022/12/21 11:15:58;;;;;;;;;;;8.30;99.90;;;;;;5038671;28;19932;-71
2022/12/21 11:18:49;;;;;;;;;;;8.40;99.90;;;;;;5027078;28;20027;-71
2022/12/21 11:21:21;;;;;;;;;;;8.40;99.90;;;;;;5035136;28;20020;-71
2022/12/21 11:24:00;;;;;;;;;;;8.50;99.90;;;;;;5021431;28;19987;-70
2022/12/21 11:26:32;;;;;;;;;;;8.60;99.90;;;;;;5022281;28;20016;-73
2022/12/21 11:29:05;;;;;;;;;;;8.60;99.90;;;;;;5003763;28;19969;-73
2022/12/21 11:31:35;;;;;;;;;;;8.60;99.90;;;;;;5018677;28;19932;-71
2022/12/21 11:34:04;;;;;;;;;;;8.50;99.90;;;;;;4999631;28;19946;-72
2022/12/21 11:36:32;;;;;;;;;;;8.60;99.90;;;;;;5023795;28;19925;-70
2022/12/21 11:39:13;;;;;;;;;;;8.50;99.90;;;;;;4993996;28;19929;-72
2022/12/21 11:41:51;;;;;;;;;;;8.40;99.90;;;;;;5019195;28;20017;-71
2022/12/21 11:44:24;;;;;;;;;;;8.20;99.90;;;;;;5035322;28;19980;-71
2022/12/21 11:47:03;;;;;;;;;;;8.30;99.90;;;;;;5038472;28;19932;-70
2022/12/21 11:49:38;;;;;;;;;;;8.30;99.90;;;;;;5018976;28;19965;-69
2022/12/21 11:52:13;;;;;;;;;;;8.40;99.90;;;;;;5000826;28;20023;-71
2022/12/21 11:55:01;;;;;;;;;;;8.50;99.90;;;;;;5010904;28;19925;-70
2022/12/21 11:57:35;;;;;;;;;;;8.60;99.90;;;;;;5007066;28;19977;-71
2022/12/21 12:00:10;;;;;;;;;;;8.60;99.90;;;;;;5013126;28;19930;-70
2022/12/21 12:02:43;;;;;;;;;;;8.70;99.90;;;;;;5031767;28;19933;-70
2022/12/21 12:05:30;;;;;;;;;;;8.70;99.90;;;;;;5031315;28;19937;-71
2022/12/21 12:08:06;;;;;;;;;;;8.80;99.90;;;;;;5031957;28;19925;-72
2022/12/21 12:10:53;;;;;;;;;;;8.70;99.90;;;;;;5038237;28;19953;-71
2022/12/21 12:13:41;;;;;;;;;;;8.70;99.90;;;;;;5021921;28;19925;-72
2022/12/21 12:16:17;;;;;;;;;;;8.70;99.90;;;;;;5024656;28;20016;-72
2022/12/21 12:18:49;;;;;;;;;;;8.50;99.90;;;;;;5030723;28;20029;-71
2022/12/21 12:21:22;;;;;;;;;;;8.50;99.90;;;;;;5006400;28;19931;-72
2022/12/21 12:23:53;;;;;;;;;;;8.40;99.90;;;;;;5035432;28;20007;-71
2022/12/21 12:26:30;;;;;;;;;;;8.40;99.90;;;;;;5009815;28;19925;-71
2022/12/21 12:29:03;;;;;;;;;;;8.40;99.90;;;;;;5036219;28;20012;-73
2022/12/21 12:31:55;;;;;;;;;;;8.30;99.90;;;;;;5015979;28;20020;-72
2022/12/21 12:34:35;;;;;;;;;;;8.40;99.90;;;;;;5031399;28;19929;-72
2022/12/21 12:37:22;;;;;;;;;;;8.40;99.90;;;;;;5033467;28;19930;-71
2022/12/21 12:40:01;;;;;;;;;;;8.40;99.90;;;;;;5000884;28;19984;-71
2022/12/21 12:42:48;;;;;;;;;;;8.40;99.90;;;;;;5034527;28;19937;-71
2022/12/21 12:45:28;;;;;;;;;;;8.40;99.90;;;;;;5032947;28;19933;-71
2022/12/21 12:48:03;;;;;;;;;;;8.50;99.90;;;;;;5015352;28;19925;-70
2022/12/21 12:50:40;;;;;;;;;;;8.50;99.90;;;;;;5026098;28;19932;-71
2022/12/21 12:53:09;;;;;;;;;;;8.50;99.90;;;;;;5032630;28;19929;-70
2022/12/21 12:55:38;;;;;;;;;;;8.40;99.90;;;;;;5031370;28;19925;-71
2022/12/21 12:58:32;;;;;;;;;;;8.40;99.90;;;;;;5017216;28;19929;-72
2022/12/21 13:01:18;;;;;;;;;;;8.50;99.90;;;;;;5010152;28;19933;-71
2022/12/21 13:04:02;;;;;;;;;;;8.50;99.90;;;;;;5003377;28;19929;-71
2022/12/21 13:06:41;;;;;;;;;;;8.50;99.90;;;;;;5030700;28;19926;-72
2022/12/21 13:09:10;;;;;;;;;;;8.60;99.90;;;;;;5012766;28;19929;-72
2022/12/21 13:11:39;;;;;;;;;;;8.60;99.90;;;;;;4999594;28;19925;-72
2022/12/21 13:14:25;;;;;;;;;;;8.50;99.90;;;;;;5021178;28;19933;-72
2022/12/21 13:17:10;;;;;;;;;;;8.50;99.90;;;;;;5027864;28;19925;-72
2022/12/21 13:19:39;;;;;;;;;;;8.60;99.90;;;;;;5014378;28;19925;-73
2022/12/21 13:22:10;;;;;;;;;;;8.60;99.90;;;;;;4995611;28;20036;-72
2022/12/21 13:24:41;;;;;;;;;;;8.70;99.90;;;;;;5031948;28;20002;-72
2022/12/21 13:27:21;;;;;;;;;;;8.70;99.90;;;;;;5014044;28;19925;-72
2022/12/21 13:30:16;;;;;;;;;;;8.70;99.90;;;;;;5007375;28;20407;-72
2022/12/21 13:32:46;;;;;;;;;;;8.70;99.90;;;;;;5030053;28;20027;-72
2022/12/21 13:35:15;;;;;;;;;;;8.70;99.90;;;;;;4977606;28;19929;-72
2022/12/21 13:37:44;;;;;;;;;;;8.60;99.90;;;;;;5010671;28;19965;-72
2022/12/21 13:40:20;;;;;;;;;;;8.60;99.90;;;;;;5008122;28;19926;-72
2022/12/21 13:42:52;;;;;;;;;;;8.70;99.90;;;;;;5010551;28;19933;-72
2022/12/21 13:45:26;;;;;;;;;;;8.80;99.90;;;;;;5007751;28;20039;-71
2022/12/21 13:47:57;;;;;;;;;;;8.80;99.90;;;;;;5033826;28;19925;-72
2022/12/21 13:50:38;;;;;;;;;;;8.80;99.90;;;;;;4997166;28;20414;-73
2022/12/21 13:53:09;;;;;;;;;;;8.80;99.90;;;;;;4998455;28;20012;-72
2022/12/21 13:55:42;;;;;;;;;;;8.80;99.90;;;;;;5018617;28;19953;-72
2022/12/21 13:58:35;;;;;;;;;;;8.80;99.90;;;;;;5030625;28;19926;-72
2022/12/21 14:01:12;;;;;;;;;;;8.70;99.90;;;;;;5010303;28;19957;-72
2022/12/21 14:03:47;;;;;;;;;;;8.70;99.90;;;;;;5004560;28;19933;-71
2022/12/21 14:06:32;;;;;;;;;;;8.70;99.90;;;;;;5032868;28;19929;-72
2022/12/21 14:09:15;;;;;;;;;;;8.70;99.90;;;;;;5034519;28;19929;-72
2022/12/21 14:11:44;;;;;;;;;;;8.80;99.90;;;;;;5015384;28;19925;-71
2022/12/21 14:14:14;;;;;;;;;;;8.80;99.90;;;;;;5007857;28;19981;-72
2022/12/21 14:16:42;;;;;;;;;;;8.80;99.90;;;;;;4990840;28;19984;-72
2022/12/21 14:19:31;;;;;;;;;;;8.80;99.90;;;;;;4997966;28;19929;-72
2022/12/21 14:22:02;;;;;;;;;;;8.80;99.90;;;;;;5033991;28;19941;-73
2022/12/21 14:24:35;;;;;;;;;;;8.80;99.90;;;;;;5007985;28;19934;-71
2022/12/21 14:27:13;;;;;;;;;;;8.80;99.90;;;;;;5019773;28;19925;-72
2022/12/21 14:29:42;;;;;;;;;;;8.70;99.90;;;;;;5010749;28;20402;-72
2022/12/21 14:32:17;;;;;;;;;;;8.70;99.90;;;;;;5013829;28;19984;-72
2022/12/21 14:34:59;;;;;;;;;;;8.70;99.90;;;;;;5014087;28;19940;-72
2022/12/21 14:37:30;;;;;;;;;;;8.60;99.90;;;;;;5017955;28;19984;-72
2022/12/21 14:40:18;;;;;;;;;;;8.50;99.90;;;;;;5009382;28;19925;-71
2022/12/21 14:42:49;;;;;;;;;;;8.50;99.90;;;;;;5022743;28;19929;-71
2022/12/21 14:45:20;;;;;;;;;;;8.50;99.90;;;;;;5008630;28;19929;-72
2022/12/21 14:47:48;;;;;;;;;;;8.40;99.90;;;;;;5011653;28;19934;-72
2022/12/21 14:50:22;;;;;;;;;;;8.40;99.90;;;;;;5013740;28;19926;-72
2022/12/21 14:52:55;;;;;;;;;;;8.30;99.90;;;;;;5021464;28;20424;-71
2022/12/21 14:55:35;;;;;;;;;;;8.30;99.90;;;;;;5023406;28;20030;-72
2022/12/21 14:58:10;;;;;;;;;;;8.30;99.90;;;;;;5015728;28;19981;-72
2022/12/21 15:00:59;;;;;;;;;;;8.30;99.90;;;;;;4990682;28;19972;-72
2022/12/21 15:03:38;;;;;;;;;;;8.20;99.90;;;;;;5017011;28;20213;-72
2022/12/21 15:06:09;;;;;;;;;;;8.20;99.90;;;;;;5006636;28;19979;-72
2022/12/21 15:08:44;;;;;;;;;;;8.10;99.90;;;;;;5015158;28;19926;-72
2022/12/21 15:11:15;;;;;;;;;;;8.00;99.90;;;;;;5008275;28;19933;-71
2022/12/21 15:14:05;;;;;;;;;;;8.00;99.90;;;;;;5013469;28;20016;-71
2022/12/21 15:16:33;;;;;;;;;;;7.90;99.90;;;;;;5004035;28;19932;-71
2022/12/21 15:19:08;;;;;;;;;;;7.90;99.90;;;;;;5018630;28;19925;-71
2022/12/21 15:21:42;;;;;;;;;;;7.80;99.90;;;;;;5004936;28;20371;-72
2022/12/21 15:24:30;;;;;;;;;;;7.80;99.90;;;;;;5024659;28;19926;-72
2022/12/21 15:27:24;;;;;;;;;;;7.70;99.90;;;;;;5011319;28;19948;-72